sensor_id;sensor_type;location;lat;lon;timestamp;temperature;humidity
1812;DHT22;904;47.814;11.134;2024-03-17T00:02:21;11.50;77.80
1812;DHT22;904;47.814;11.134;2024-03-17T00:04:49;11.50;77.60
1812;DHT22;904;47.814;11.134;2024-03-17T00:07:16;11.50;77.70
1812;DHT22;904;47.814;11.134;2024-03-17T00:09:45;11.50;77.50
1812;DHT22;904;47.814;11.134;2024-03-17T00:12:12;11.50;77.70
1812;DHT22;904;47.814;11.134;2024-03-17T00:14:38;11.50;77.50
1812;DHT22;904;47.814;11.134;2024-03-17T00:17:10;11.40;77.60
1812;DHT22;904;47.814;11.134;2024-03-17T00:19:36;11.40;78.00
1812;DHT22;904;47.814;11.134;2024-03-17T00:22:04;11.40;78.10
1812;DHT22;904;47.814;11.134;2024-03-17T00:24:31;11.40;78.30
1812;DHT22;904;47.814;11.134;2024-03-17T00:27:00;11.40;78.50
1812;DHT22;904;47.814;11.134;2024-03-17T00:29:26;11.50;78.50
1812;DHT22;904;47.814;11.134;2024-03-17T00:31:54;11.40;78.60
1812;DHT22;904;47.814;11.134;2024-03-17T00:34:20;11.40;79.20
1812;DHT22;904;47.814;11.134;2024-03-17T00:36:48;11.40;79.20
1812;DHT22;904;47.814;11.134;2024-03-17T00:39:15;11.40;79.60
1812;DHT22;904;47.814;11.134;2024-03-17T00:41:43;11.40;80.20
1812;DHT22;904;47.814;11.134;2024-03-17T00:44:09;11.40;80.00
1812;DHT22;904;47.814;11.134;2024-03-17T00:46:36;11.40;80.00
1812;DHT22;904;47.814;11.134;2024-03-17T00:49:02;11.40;80.10
1812;DHT22;904;47.814;11.134;2024-03-17T00:51:30;11.40;81.00
1812;DHT22;904;47.814;11.134;2024-03-17T00:53:56;11.30;80.60
1812;DHT22;904;47.814;11.134;2024-03-17T00:56:25;11.30;81.10
1812;DHT22;904;47.814;11.134;2024-03-17T00:58:51;11.30;81.10
1812;DHT22;904;47.814;11.134;2024-03-17T01:01:18;11.30;81.30
1812;DHT22;904;47.814;11.134;2024-03-17T01:03:45;11.30;81.20
1812;DHT22;904;47.814;11.134;2024-03-17T01:06:12;11.30;80.80
1812;DHT22;904;47.814;11.134;2024-03-17T01:08:38;11.30;81.10
1812;DHT22;904;47.814;11.134;2024-03-17T01:11:04;11.30;81.00
1812;DHT22;904;47.814;11.134;2024-03-17T01:13:35;11.30;80.90
1812;DHT22;904;47.814;11.134;2024-03-17T01:16:07;11.20;80.50
1812;DHT22;904;47.814;11.134;2024-03-17T01:18:33;11.20;80.20
1812;DHT22;904;47.814;11.134;2024-03-17T01:21:00;11.10;80.10
1812;DHT22;904;47.814;11.134;2024-03-17T01:23:26;11.00;80.40
1812;DHT22;904;47.814;11.134;2024-03-17T01:25:53;10.90;81.10
1812;DHT22;904;47.814;11.134;2024-03-17T01:28:19;10.90;81.30
1812;DHT22;904;47.814;11.134;2024-03-17T01:30:47;10.90;81.40
1812;DHT22;904;47.814;11.134;2024-03-17T01:33:13;10.80;81.50
1812;DHT22;904;47.814;11.134;2024-03-17T01:35:41;10.80;81.60
1812;DHT22;904;47.814;11.134;2024-03-17T01:38:07;10.80;81.50
1812;DHT22;904;47.814;11.134;2024-03-17T01:40:35;10.80;81.30
1812;DHT22;904;47.814;11.134;2024-03-17T01:43:04;10.80;81.30
1812;DHT22;904;47.814;11.134;2024-03-17T01:45:35;10.70;81.70
1812;DHT22;904;47.814;11.134;2024-03-17T01:48:08;10.70;82.10
1812;DHT22;904;47.814;11.134;2024-03-17T01:50:39;10.70;82.20
1812;DHT22;904;47.814;11.134;2024-03-17T01:53:06;10.70;82.40
1812;DHT22;904;47.814;11.134;2024-03-17T01:55:38;10.70;82.00
1812;DHT22;904;47.814;11.134;2024-03-17T01:58:05;10.60;82.20
1812;DHT22;904;47.814;11.134;2024-03-17T02:00:36;10.60;82.90
1812;DHT22;904;47.814;11.134;2024-03-17T02:03:04;10.60;83.40
1812;DHT22;904;47.814;11.134;2024-03-17T02:05:31;10.60;83.30
1812;DHT22;904;47.814;11.134;2024-03-17T02:07:57;10.60;83.40
1812;DHT22;904;47.814;11.134;2024-03-17T02:10:24;10.50;83.70
1812;DHT22;904;47.814;11.134;2024-03-17T02:12:51;10.50;83.70
1812;DHT22;904;47.814;11.134;2024-03-17T02:15:18;10.50;84.40
1812;DHT22;904;47.814;11.134;2024-03-17T02:17:44;10.50;84.50
1812;DHT22;904;47.814;11.134;2024-03-17T02:20:14;10.50;84.20
1812;DHT22;904;47.814;11.134;2024-03-17T02:22:41;10.60;83.70
1812;DHT22;904;47.814;11.134;2024-03-17T02:25:09;10.50;83.90
1812;DHT22;904;47.814;11.134;2024-03-17T02:27:35;10.50;83.90
1812;DHT22;904;47.814;11.134;2024-03-17T02:30:02;10.50;83.70
1812;DHT22;904;47.814;11.134;2024-03-17T02:32:28;10.50;83.40
1812;DHT22;904;47.814;11.134;2024-03-17T02:34:55;10.40;83.30
1812;DHT22;904;47.814;11.134;2024-03-17T02:37:22;10.40;83.90
1812;DHT22;904;47.814;11.134;2024-03-17T02:39:50;10.30;84.10
1812;DHT22;904;47.814;11.134;2024-03-17T02:42:16;10.30;84.30
1812;DHT22;904;47.814;11.134;2024-03-17T02:44:43;10.40;84.60
1812;DHT22;904;47.814;11.134;2024-03-17T02:47:11;10.30;84.60
1812;DHT22;904;47.814;11.134;2024-03-17T02:49:40;10.30;84.70
1812;DHT22;904;47.814;11.134;2024-03-17T02:52:10;10.30;85.00
1812;DHT22;904;47.814;11.134;2024-03-17T02:54:38;10.30;84.90
1812;DHT22;904;47.814;11.134;2024-03-17T02:57:07;10.40;84.90
1812;DHT22;904;47.814;11.134;2024-03-17T02:59:34;10.40;84.40
1812;DHT22;904;47.814;11.134;2024-03-17T03:02:02;10.40;84.30
1812;DHT22;904;47.814;11.134;2024-03-17T03:04:30;10.30;84.10
1812;DHT22;904;47.814;11.134;2024-03-17T03:06:57;10.30;84.20
1812;DHT22;904;47.814;11.134;2024-03-17T03:09:24;10.30;83.90
1812;DHT22;904;47.814;11.134;2024-03-17T03:11:57;10.20;84.10
1812;DHT22;904;47.814;11.134;2024-03-17T03:14:25;10.20;84.30
1812;DHT22;904;47.814;11.134;2024-03-17T03:16:52;10.10;84.40
1812;DHT22;904;47.814;11.134;2024-03-17T03:19:19;10.10;84.20
1812;DHT22;904;47.814;11.134;2024-03-17T03:21:46;10.00;84.30
1812;DHT22;904;47.814;11.134;2024-03-17T03:24:14;10.00;84.70
1812;DHT22;904;47.814;11.134;2024-03-17T03:26:41;10.00;85.10
1812;DHT22;904;47.814;11.134;2024-03-17T03:29:09;10.00;85.30
1812;DHT22;904;47.814;11.134;2024-03-17T03:31:38;10.00;85.80
1812;DHT22;904;47.814;11.134;2024-03-17T03:34:05;10.00;85.80
1812;DHT22;904;47.814;11.134;2024-03-17T03:36:34;10.00;85.90
1812;DHT22;904;47.814;11.134;2024-03-17T03:39:01;10.00;85.80
1812;DHT22;904;47.814;11.134;2024-03-17T03:41:31;10.00;85.50
1812;DHT22;904;47.814;11.134;2024-03-17T03:43:58;9.90;86.70
1812;DHT22;904;47.814;11.134;2024-03-17T03:46:25;9.90;86.80
1812;DHT22;904;47.814;11.134;2024-03-17T03:48:54;9.90;86.50
1812;DHT22;904;47.814;11.134;2024-03-17T03:51:21;9.90;86.60
1812;DHT22;904;47.814;11.134;2024-03-17T03:53:48;9.90;86.00
1812;DHT22;904;47.814;11.134;2024-03-17T03:56:14;9.90;85.90
1812;DHT22;904;47.814;11.134;2024-03-17T03:58:42;9.90;85.50
1812;DHT22;904;47.814;11.134;2024-03-17T04:01:11;9.90;85.00
1812;DHT22;904;47.814;11.134;2024-03-17T04:03:41;9.90;84.70
1812;DHT22;904;47.814;11.134;2024-03-17T04:06:10;9.80;84.20
1812;DHT22;904;47.814;11.134;2024-03-17T04:08:39;9.70;85.00
1812;DHT22;904;47.814;11.134;2024-03-17T04:11:07;9.70;84.60
1812;DHT22;904;47.814;11.134;2024-03-17T04:13:34;9.60;85.30
1812;DHT22;904;47.814;11.134;2024-03-17T04:16:04;9.60;85.20
1812;DHT22;904;47.814;11.134;2024-03-17T04:18:32;9.60;83.00
1812;DHT22;904;47.814;11.134;2024-03-17T04:21:01;9.50;83.30
1812;DHT22;904;47.814;11.134;2024-03-17T04:23:31;9.40;83.30
1812;DHT22;904;47.814;11.134;2024-03-17T04:26:01;9.40;84.00
1812;DHT22;904;47.814;11.134;2024-03-17T04:28:29;9.40;83.50
1812;DHT22;904;47.814;11.134;2024-03-17T04:31:03;9.30;84.00
1812;DHT22;904;47.814;11.134;2024-03-17T04:33:32;9.30;84.60
1812;DHT22;904;47.814;11.134;2024-03-17T04:35:59;9.20;84.90
1812;DHT22;904;47.814;11.134;2024-03-17T04:38:27;9.20;85.00
1812;DHT22;904;47.814;11.134;2024-03-17T04:40:56;9.20;85.10
1812;DHT22;904;47.814;11.134;2024-03-17T04:43:30;9.20;84.90
1812;DHT22;904;47.814;11.134;2024-03-17T04:46:02;9.10;83.90
1812;DHT22;904;47.814;11.134;2024-03-17T04:48:31;9.10;83.80
1812;DHT22;904;47.814;11.134;2024-03-17T04:50:58;9.10;83.70
1812;DHT22;904;47.814;11.134;2024-03-17T04:53:28;9.10;84.10
1812;DHT22;904;47.814;11.134;2024-03-17T04:56:04;9.10;82.00
1812;DHT22;904;47.814;11.134;2024-03-17T04:58:31;9.00;81.60
1812;DHT22;904;47.814;11.134;2024-03-17T05:01:03;8.90;82.20
1812;DHT22;904;47.814;11.134;2024-03-17T05:03:30;8.80;83.10
1812;DHT22;904;47.814;11.134;2024-03-17T05:06:01;8.80;84.30
1812;DHT22;904;47.814;11.134;2024-03-17T05:08:28;8.80;85.20
1812;DHT22;904;47.814;11.134;2024-03-17T05:10:58;8.80;86.30
1812;DHT22;904;47.814;11.134;2024-03-17T05:13:32;8.90;87.20
1812;DHT22;904;47.814;11.134;2024-03-17T05:16:00;8.90;87.00
1812;DHT22;904;47.814;11.134;2024-03-17T05:18:27;8.90;87.10
1812;DHT22;904;47.814;11.134;2024-03-17T05:20:58;8.90;87.70
1812;DHT22;904;47.814;11.134;2024-03-17T05:23:27;8.90;88.10
1812;DHT22;904;47.814;11.134;2024-03-17T05:25:55;9.00;88.30
1812;DHT22;904;47.814;11.134;2024-03-17T05:28:23;9.00;88.60
1812;DHT22;904;47.814;11.134;2024-03-17T05:30:52;9.00;88.40
1812;DHT22;904;47.814;11.134;2024-03-17T05:33:20;9.10;88.30
1812;DHT22;904;47.814;11.134;2024-03-17T05:35:51;9.10;87.70
1812;DHT22;904;47.814;11.134;2024-03-17T05:38:19;9.10;87.70
1812;DHT22;904;47.814;11.134;2024-03-17T05:40:56;9.10;86.90
1812;DHT22;904;47.814;11.134;2024-03-17T05:43:25;9.00;86.40
1812;DHT22;904;47.814;11.134;2024-03-17T05:45:56;9.00;87.00
1812;DHT22;904;47.814;11.134;2024-03-17T05:48:24;9.00;87.50
1812;DHT22;904;47.814;11.134;2024-03-17T05:50:51;9.00;87.90
1812;DHT22;904;47.814;11.134;2024-03-17T05:53:18;9.10;87.70
1812;DHT22;904;47.814;11.134;2024-03-17T05:55:45;9.10;87.50
1812;DHT22;904;47.814;11.134;2024-03-17T05:58:12;9.00;87.50
1812;DHT22;904;47.814;11.134;2024-03-17T06:00:40;9.00;87.40
1812;DHT22;904;47.814;11.134;2024-03-17T06:03:10;9.00;87.60
1812;DHT22;904;47.814;11.134;2024-03-17T06:05:38;9.00;88.00
1812;DHT22;904;47.814;11.134;2024-03-17T06:08:07;9.00;88.30
1812;DHT22;904;47.814;11.134;2024-03-17T06:10:35;9.00;88.90
1812;DHT22;904;47.814;11.134;2024-03-17T06:13:02;9.00;89.20
1812;DHT22;904;47.814;11.134;2024-03-17T06:15:30;9.10;89.40
1812;DHT22;904;47.814;11.134;2024-03-17T06:17:57;9.10;89.70
1812;DHT22;904;47.814;11.134;2024-03-17T06:20:28;9.20;90.00
1812;DHT22;904;47.814;11.134;2024-03-17T06:22:55;9.20;90.40
1812;DHT22;904;47.814;11.134;2024-03-17T06:25:23;9.20;90.70
1812;DHT22;904;47.814;11.134;2024-03-17T06:27:50;9.30;90.90
1812;DHT22;904;47.814;11.134;2024-03-17T06:30:18;9.50;91.20
1812;DHT22;904;47.814;11.134;2024-03-17T06:32:46;9.60;91.40
1812;DHT22;904;47.814;11.134;2024-03-17T06:35:13;9.80;90.80
1812;DHT22;904;47.814;11.134;2024-03-17T06:37:42;9.90;90.00
1812;DHT22;904;47.814;11.134;2024-03-17T06:40:13;10.00;88.60
1812;DHT22;904;47.814;11.134;2024-03-17T06:42:40;10.00;88.50
1812;DHT22;904;47.814;11.134;2024-03-17T06:45:08;10.10;88.00
1812;DHT22;904;47.814;11.134;2024-03-17T06:47:35;10.20;88.00
1812;DHT22;904;47.814;11.134;2024-03-17T06:50:07;10.30;88.20
1812;DHT22;904;47.814;11.134;2024-03-17T06:52:37;10.40;88.40
1812;DHT22;904;47.814;11.134;2024-03-17T06:55:06;10.50;89.10
1812;DHT22;904;47.814;11.134;2024-03-17T06:57:33;10.70;87.30
1812;DHT22;904;47.814;11.134;2024-03-17T07:00:00;10.80;86.20
1812;DHT22;904;47.814;11.134;2024-03-17T07:02:27;10.90;85.70
1812;DHT22;904;47.814;11.134;2024-03-17T07:04:54;10.90;85.70
1812;DHT22;904;47.814;11.134;2024-03-17T07:07:21;11.00;85.60
1812;DHT22;904;47.814;11.134;2024-03-17T07:09:49;11.00;85.10
1812;DHT22;904;47.814;11.134;2024-03-17T07:12:17;11.10;85.00
1812;DHT22;904;47.814;11.134;2024-03-17T07:14:44;11.30;85.70
1812;DHT22;904;47.814;11.134;2024-03-17T07:17:11;11.60;83.60
1812;DHT22;904;47.814;11.134;2024-03-17T07:19:38;11.80;80.90
1812;DHT22;904;47.814;11.134;2024-03-17T07:22:05;11.80;80.20
1812;DHT22;904;47.814;11.134;2024-03-17T07:24:32;11.90;80.60
1812;DHT22;904;47.814;11.134;2024-03-17T07:26:59;12.30;80.00
1812;DHT22;904;47.814;11.134;2024-03-17T07:29:31;12.80;79.00
1812;DHT22;904;47.814;11.134;2024-03-17T07:32:06;13.30;76.20
1812;DHT22;904;47.814;11.134;2024-03-17T07:34:33;13.90;73.80
1812;DHT22;904;47.814;11.134;2024-03-17T07:37:01;14.70;72.10
1812;DHT22;904;47.814;11.134;2024-03-17T07:39:29;15.70;68.70
1812;DHT22;904;47.814;11.134;2024-03-17T07:41:58;16.70;65.20
1812;DHT22;904;47.814;11.134;2024-03-17T07:44:26;17.60;61.70
1812;DHT22;904;47.814;11.134;2024-03-17T07:46:54;18.50;61.10
1812;DHT22;904;47.814;11.134;2024-03-17T07:49:21;19.40;57.50
1812;DHT22;904;47.814;11.134;2024-03-17T07:51:48;20.20;54.80
1812;DHT22;904;47.814;11.134;2024-03-17T07:54:15;20.90;54.10
1812;DHT22;904;47.814;11.134;2024-03-17T07:56:42;21.70;49.80
1812;DHT22;904;47.814;11.134;2024-03-17T07:59:09;22.30;47.90
1812;DHT22;904;47.814;11.134;2024-03-17T08:01:39;22.70;42.50
1812;DHT22;904;47.814;11.134;2024-03-17T08:04:06;22.90;43.80
1812;DHT22;904;47.814;11.134;2024-03-17T08:06:33;23.20;40.10
1812;DHT22;904;47.814;11.134;2024-03-17T08:09:01;23.50;40.50
1812;DHT22;904;47.814;11.134;2024-03-17T08:11:28;23.80;39.70
1812;DHT22;904;47.814;11.134;2024-03-17T08:13:56;24.20;39.30
1812;DHT22;904;47.814;11.134;2024-03-17T08:16:22;24.60;38.90
1812;DHT22;904;47.814;11.134;2024-03-17T08:18:51;24.70;36.30
1812;DHT22;904;47.814;11.134;2024-03-17T08:21:18;24.90;37.90
1812;DHT22;904;47.814;11.134;2024-03-17T08:23:45;25.10;34.80
1812;DHT22;904;47.814;11.134;2024-03-17T08:26:13;24.90;33.70
1812;DHT22;904;47.814;11.134;2024-03-17T08:28:44;25.00;33.70
1812;DHT22;904;47.814;11.134;2024-03-17T08:31:12;25.00;32.30
1812;DHT22;904;47.814;11.134;2024-03-17T08:33:41;24.80;33.30
1812;DHT22;904;47.814;11.134;2024-03-17T08:36:09;25.10;34.60
1812;DHT22;904;47.814;11.134;2024-03-17T08:38:37;25.40;33.50
1812;DHT22;904;47.814;11.134;2024-03-17T08:41:05;25.80;33.60
1812;DHT22;904;47.814;11.134;2024-03-17T08:43:33;26.20;32.00
1812;DHT22;904;47.814;11.134;2024-03-17T08:46:01;26.50;31.00
1812;DHT22;904;47.814;11.134;2024-03-17T08:48:30;26.60;29.60
1812;DHT22;904;47.814;11.134;2024-03-17T08:50:57;26.60;29.40
1812;DHT22;904;47.814;11.134;2024-03-17T08:53:26;26.70;29.40
1812;DHT22;904;47.814;11.134;2024-03-17T08:55:53;26.80;28.70
1812;DHT22;904;47.814;11.134;2024-03-17T08:58:20;27.00;29.80
1812;DHT22;904;47.814;11.134;2024-03-17T09:00:48;27.40;29.80
1812;DHT22;904;47.814;11.134;2024-03-17T09:03:17;27.80;29.30
1812;DHT22;904;47.814;11.134;2024-03-17T09:05:45;28.10;28.90
1812;DHT22;904;47.814;11.134;2024-03-17T09:08:16;28.20;27.00
1812;DHT22;904;47.814;11.134;2024-03-17T09:10:44;28.00;27.10
1812;DHT22;904;47.814;11.134;2024-03-17T09:13:13;28.00;27.60
1812;DHT22;904;47.814;11.134;2024-03-17T09:15:41;28.30;27.40
1812;DHT22;904;47.814;11.134;2024-03-17T09:18:07;28.50;27.60
1812;DHT22;904;47.814;11.134;2024-03-17T09:20:34;28.50;26.90
1812;DHT22;904;47.814;11.134;2024-03-17T09:23:01;28.50;26.90
1812;DHT22;904;47.814;11.134;2024-03-17T09:25:29;28.50;26.40
1812;DHT22;904;47.814;11.134;2024-03-17T09:27:57;28.30;26.60
1812;DHT22;904;47.814;11.134;2024-03-17T09:30:24;28.00;25.40
1812;DHT22;904;47.814;11.134;2024-03-17T09:32:51;27.80;26.70
1812;DHT22;904;47.814;11.134;2024-03-17T09:35:18;27.80;26.50
1812;DHT22;904;47.814;11.134;2024-03-17T09:37:44;27.60;26.10
1812;DHT22;904;47.814;11.134;2024-03-17T09:40:14;27.40;26.60
1812;DHT22;904;47.814;11.134;2024-03-17T09:42:41;27.20;26.70
1812;DHT22;904;47.814;11.134;2024-03-17T09:45:10;27.10;27.40
1812;DHT22;904;47.814;11.134;2024-03-17T09:47:39;26.80;26.90
1812;DHT22;904;47.814;11.134;2024-03-17T09:50:13;26.50;26.80
1812;DHT22;904;47.814;11.134;2024-03-17T09:52:42;26.20;28.10
1812;DHT22;904;47.814;11.134;2024-03-17T09:55:15;26.30;28.30
1812;DHT22;904;47.814;11.134;2024-03-17T09:57:43;26.60;28.20
1812;DHT22;904;47.814;11.134;2024-03-17T10:00:13;26.80;28.60
1812;DHT22;904;47.814;11.134;2024-03-17T10:02:42;27.40;29.40
1812;DHT22;904;47.814;11.134;2024-03-17T10:05:28;28.00;28.90
1812;DHT22;904;47.814;11.134;2024-03-17T10:07:55;28.60;27.90
1812;DHT22;904;47.814;11.134;2024-03-17T10:10:22;28.90;27.00
1812;DHT22;904;47.814;11.134;2024-03-17T10:12:50;28.80;26.60
1812;DHT22;904;47.814;11.134;2024-03-17T10:15:19;28.60;26.60
1812;DHT22;904;47.814;11.134;2024-03-17T10:17:47;28.70;25.90
1812;DHT22;904;47.814;11.134;2024-03-17T10:20:16;29.00;25.50
1812;DHT22;904;47.814;11.134;2024-03-17T10:22:59;29.40;25.00
1812;DHT22;904;47.814;11.134;2024-03-17T10:25:26;29.60;25.00
1812;DHT22;904;47.814;11.134;2024-03-17T10:27:53;29.70;25.40
1812;DHT22;904;47.814;11.134;2024-03-17T10:30:23;29.80;24.70
1812;DHT22;904;47.814;11.134;2024-03-17T10:32:56;29.80;24.00
1812;DHT22;904;47.814;11.134;2024-03-17T10:35:28;29.90;24.00
1812;DHT22;904;47.814;11.134;2024-03-17T10:37:56;30.00;23.40
1812;DHT22;904;47.814;11.134;2024-03-17T10:40:24;30.10;23.80
1812;DHT22;904;47.814;11.134;2024-03-17T10:42:52;29.90;22.20
1812;DHT22;904;47.814;11.134;2024-03-17T10:45:19;29.30;22.50
1812;DHT22;904;47.814;11.134;2024-03-17T10:47:49;28.90;23.80
1812;DHT22;904;47.814;11.134;2024-03-17T10:50:18;28.60;24.40
1812;DHT22;904;47.814;11.134;2024-03-17T10:52:45;28.60;25.60
1812;DHT22;904;47.814;11.134;2024-03-17T10:55:21;28.80;25.20
1812;DHT22;904;47.814;11.134;2024-03-17T10:57:49;29.10;25.40
1812;DHT22;904;47.814;11.134;2024-03-17T11:00:18;29.30;24.80
1812;DHT22;904;47.814;11.134;2024-03-17T11:02:49;29.30;25.00
1812;DHT22;904;47.814;11.134;2024-03-17T11:05:20;29.50;25.10
1812;DHT22;904;47.814;11.134;2024-03-17T11:07:51;29.50;24.50
1812;DHT22;904;47.814;11.134;2024-03-17T11:10:21;29.30;24.30
1812;DHT22;904;47.814;11.134;2024-03-17T11:12:50;28.90;23.90
1812;DHT22;904;47.814;11.134;2024-03-17T11:15:44;28.30;24.20
1812;DHT22;904;47.814;11.134;2024-03-17T11:18:35;27.70;24.20
1812;DHT22;904;47.814;11.134;2024-03-17T11:21:04;27.30;25.10
1812;DHT22;904;47.814;11.134;2024-03-17T11:23:37;27.00;25.40
1812;DHT22;904;47.814;11.134;2024-03-17T11:26:05;26.60;26.00
1812;DHT22;904;47.814;11.134;2024-03-17T11:28:46;26.20;25.70
1812;DHT22;904;47.814;11.134;2024-03-17T11:34:32;25.20;27.10
1812;DHT22;904;47.814;11.134;2024-03-17T11:37:01;24.70;27.70
1812;DHT22;904;47.814;11.134;2024-03-17T11:39:51;24.50;28.80
1812;DHT22;904;47.814;11.134;2024-03-17T11:42:22;24.40;29.00
1812;DHT22;904;47.814;11.134;2024-03-17T11:45:03;24.20;28.40
1812;DHT22;904;47.814;11.134;2024-03-17T11:47:39;24.10;28.70
1812;DHT22;904;47.814;11.134;2024-03-17T11:50:08;24.20;29.10
1812;DHT22;904;47.814;11.134;2024-03-17T11:52:37;24.20;28.70
1812;DHT22;904;47.814;11.134;2024-03-17T11:55:04;24.20;28.80
1812;DHT22;904;47.814;11.134;2024-03-17T11:57:31;24.20;29.20
1812;DHT22;904;47.814;11.134;2024-03-17T11:59:57;24.30;29.50
1812;DHT22;904;47.814;11.134;2024-03-17T12:02:25;24.30;28.80
1812;DHT22;904;47.814;11.134;2024-03-17T12:04:52;24.20;28.80
1812;DHT22;904;47.814;11.134;2024-03-17T12:07:21;24.00;29.10
1812;DHT22;904;47.814;11.134;2024-03-17T12:09:49;24.10;30.00
1812;DHT22;904;47.814;11.134;2024-03-17T12:12:18;24.20;29.80
1812;DHT22;904;47.814;11.134;2024-03-17T12:14:45;24.40;30.10
1812;DHT22;904;47.814;11.134;2024-03-17T12:17:14;24.30;28.70
1812;DHT22;904;47.814;11.134;2024-03-17T12:19:41;24.10;29.00
1812;DHT22;904;47.814;11.134;2024-03-17T12:22:16;23.90;28.80
1812;DHT22;904;47.814;11.134;2024-03-17T12:24:44;23.80;29.70
1812;DHT22;904;47.814;11.134;2024-03-17T12:27:17;23.80;29.60
1812;DHT22;904;47.814;11.134;2024-03-17T12:29:43;23.70;29.50
1812;DHT22;904;47.814;11.134;2024-03-17T12:32:13;23.70;30.10
1812;DHT22;904;47.814;11.134;2024-03-17T12:34:40;23.60;30.60
1812;DHT22;904;47.814;11.134;2024-03-17T12:37:08;23.60;31.30
1812;DHT22;904;47.814;11.134;2024-03-17T12:39:35;23.70;31.00
1812;DHT22;904;47.814;11.134;2024-03-17T12:42:07;23.80;30.20
1812;DHT22;904;47.814;11.134;2024-03-17T12:44:34;23.80;30.50
1812;DHT22;904;47.814;11.134;2024-03-17T12:47:04;23.90;31.10
1812;DHT22;904;47.814;11.134;2024-03-17T12:49:31;23.90;30.70
1812;DHT22;904;47.814;11.134;2024-03-17T12:52:00;23.70;30.00
1812;DHT22;904;47.814;11.134;2024-03-17T12:54:27;23.60;30.00
1812;DHT22;904;47.814;11.134;2024-03-17T12:57:06;23.40;29.60
1812;DHT22;904;47.814;11.134;2024-03-17T12:59:50;23.20;30.00
1812;DHT22;904;47.814;11.134;2024-03-17T13:02:34;23.10;31.00
1812;DHT22;904;47.814;11.134;2024-03-17T13:05:22;23.00;30.10
1812;DHT22;904;47.814;11.134;2024-03-17T13:07:50;22.80;29.60
1812;DHT22;904;47.814;11.134;2024-03-17T13:10:18;22.60;30.20
1812;DHT22;904;47.814;11.134;2024-03-17T13:12:48;22.50;29.60
1812;DHT22;904;47.814;11.134;2024-03-17T13:15:16;22.30;30.10
1812;DHT22;904;47.814;11.134;2024-03-17T13:17:44;22.10;30.60
1812;DHT22;904;47.814;11.134;2024-03-17T13:20:14;21.90;30.30
1812;DHT22;904;47.814;11.134;2024-03-17T13:22:42;21.80;29.60
1812;DHT22;904;47.814;11.134;2024-03-17T13:25:14;21.60;29.80
1812;DHT22;904;47.814;11.134;2024-03-17T13:27:51;21.40;30.00
1812;DHT22;904;47.814;11.134;2024-03-17T13:30:20;21.20;30.10
1812;DHT22;904;47.814;11.134;2024-03-17T13:32:48;21.00;29.80
1812;DHT22;904;47.814;11.134;2024-03-17T13:35:23;20.90;29.80
1812;DHT22;904;47.814;11.134;2024-03-17T13:37:50;20.70;30.00
1812;DHT22;904;47.814;11.134;2024-03-17T13:40:20;20.50;30.90
1812;DHT22;904;47.814;11.134;2024-03-17T13:42:49;20.40;31.70
1812;DHT22;904;47.814;11.134;2024-03-17T13:45:19;20.30;31.70
1812;DHT22;904;47.814;11.134;2024-03-17T13:47:49;20.20;31.60
1812;DHT22;904;47.814;11.134;2024-03-17T13:50:16;20.10;31.60
1812;DHT22;904;47.814;11.134;2024-03-17T13:52:42;20.00;32.00
1812;DHT22;904;47.814;11.134;2024-03-17T13:55:13;19.90;32.50
1812;DHT22;904;47.814;11.134;2024-03-17T13:57:43;19.80;32.70
1812;DHT22;904;47.814;11.134;2024-03-17T14:00:11;19.70;33.10
1812;DHT22;904;47.814;11.134;2024-03-17T14:02:43;19.60;33.90
1812;DHT22;904;47.814;11.134;2024-03-17T14:05:12;19.60;34.20
1812;DHT22;904;47.814;11.134;2024-03-17T14:07:40;19.60;34.10
1812;DHT22;904;47.814;11.134;2024-03-17T14:10:08;19.50;34.10
1812;DHT22;904;47.814;11.134;2024-03-17T14:12:36;19.50;36.00
1812;DHT22;904;47.814;11.134;2024-03-17T14:15:04;19.50;36.80
1812;DHT22;904;47.814;11.134;2024-03-17T14:17:32;19.50;37.70
1812;DHT22;904;47.814;11.134;2024-03-17T14:20:00;19.50;38.60
1812;DHT22;904;47.814;11.134;2024-03-17T14:22:27;19.50;38.50
1812;DHT22;904;47.814;11.134;2024-03-17T14:24:54;19.60;38.30
1812;DHT22;904;47.814;11.134;2024-03-17T14:27:21;19.60;38.40
1812;DHT22;904;47.814;11.134;2024-03-17T14:29:48;19.60;37.30
1812;DHT22;904;47.814;11.134;2024-03-17T14:32:16;19.60;38.00
1812;DHT22;904;47.814;11.134;2024-03-17T14:34:43;19.60;38.50
1812;DHT22;904;47.814;11.134;2024-03-17T14:37:12;19.60;37.30
1812;DHT22;904;47.814;11.134;2024-03-17T14:39:40;19.50;38.10
1812;DHT22;904;47.814;11.134;2024-03-17T14:42:07;19.60;37.30
1812;DHT22;904;47.814;11.134;2024-03-17T14:44:34;19.50;36.40
1812;DHT22;904;47.814;11.134;2024-03-17T14:47:02;19.40;37.60
1812;DHT22;904;47.814;11.134;2024-03-17T14:49:30;19.30;38.80
1812;DHT22;904;47.814;11.134;2024-03-17T14:51:57;19.30;38.70
1812;DHT22;904;47.814;11.134;2024-03-17T14:54:26;19.20;39.10
1812;DHT22;904;47.814;11.134;2024-03-17T14:56:53;19.10;39.40
1812;DHT22;904;47.814;11.134;2024-03-17T14:59:20;19.10;39.40
1812;DHT22;904;47.814;11.134;2024-03-17T15:01:47;19.00;39.60
1812;DHT22;904;47.814;11.134;2024-03-17T15:04:14;19.00;39.50
1812;DHT22;904;47.814;11.134;2024-03-17T15:06:41;18.90;40.00
1812;DHT22;904;47.814;11.134;2024-03-17T15:09:09;18.80;40.00
1812;DHT22;904;47.814;11.134;2024-03-17T15:11:37;18.80;39.90
1812;DHT22;904;47.814;11.134;2024-03-17T15:14:04;18.70;40.40
1812;DHT22;904;47.814;11.134;2024-03-17T15:16:36;18.70;40.50
1812;DHT22;904;47.814;11.134;2024-03-17T15:19:04;18.60;41.00
1812;DHT22;904;47.814;11.134;2024-03-17T15:21:32;18.50;41.10
1812;DHT22;904;47.814;11.134;2024-03-17T15:23:59;18.40;41.60
1812;DHT22;904;47.814;11.134;2024-03-17T15:26:28;18.40;41.60
1812;DHT22;904;47.814;11.134;2024-03-17T15:28:57;18.30;41.30
1812;DHT22;904;47.814;11.134;2024-03-17T15:31:29;18.20;39.90
1812;DHT22;904;47.814;11.134;2024-03-17T15:33:56;18.20;38.60
1812;DHT22;904;47.814;11.134;2024-03-17T15:36:23;18.10;38.40
1812;DHT22;904;47.814;11.134;2024-03-17T15:38:50;18.00;38.20
1812;DHT22;904;47.814;11.134;2024-03-17T15:41:17;17.90;37.40
1812;DHT22;904;47.814;11.134;2024-03-17T15:43:44;17.80;37.00
1812;DHT22;904;47.814;11.134;2024-03-17T15:46:14;17.70;37.00
1812;DHT22;904;47.814;11.134;2024-03-17T15:48:41;17.70;37.30
1812;DHT22;904;47.814;11.134;2024-03-17T15:51:08;17.50;37.60
1812;DHT22;904;47.814;11.134;2024-03-17T15:53:35;17.50;37.80
1812;DHT22;904;47.814;11.134;2024-03-17T15:56:03;17.40;38.20
1812;DHT22;904;47.814;11.134;2024-03-17T15:58:31;17.30;38.90
1812;DHT22;904;47.814;11.134;2024-03-17T16:00:59;17.30;39.10
1812;DHT22;904;47.814;11.134;2024-03-17T16:03:30;17.30;38.90
1812;DHT22;904;47.814;11.134;2024-03-17T16:06:00;17.20;38.50
1812;DHT22;904;47.814;11.134;2024-03-17T16:08:29;17.20;38.30
1812;DHT22;904;47.814;11.134;2024-03-17T16:10:57;17.10;37.90
1812;DHT22;904;47.814;11.134;2024-03-17T16:13:27;17.10;38.30
1812;DHT22;904;47.814;11.134;2024-03-17T16:15:54;17.00;38.20
1812;DHT22;904;47.814;11.134;2024-03-17T16:18:22;17.00;37.90